sensor_id;sensor_type;location;lat;lon;timestamp;pressure;altitude;pressure_sealevel;temperature;humidity
11605;BME280;5858;43.076;25.626;2023-02-28T00:00:18;100046.31;;;9.00;100.00
11605;BME280;5858;43.076;25.626;2023-02-28T00:02:46;100021.47;;;8.82;100.00
11605;BME280;5858;43.076;25.626;2023-02-28T00:05:22;99960.06;;;8.38;100.00
11605;BME280;5858;43.076;25.626;2023-02-28T00:07:52;100030.78;;;8.78;100.00
11605;BME280;5858;43.076;25.626;2023-02-28T00:10:24;100058.59;;;8.93;100.00
11605;BME280;5858;43.076;25.626;2023-02-28T00:12:54;100067.22;;;8.87;100.00
11605;BME280;5858;43.076;25.626;2023-02-28T00:15:23;99968.22;;;8.37;100.00
11605;BME280;5858;43.076;25.626;2023-02-28T00:17:55;100027.22;;;8.69;100.00
11605;BME280;5858;43.076;25.626;2023-02-28T00:20:23;100052.97;;;8.78;100.00
11605;BME280;5858;43.076;25.626;2023-02-28T00:22:52;100071.88;;;8.85;100.00
11605;BME280;5858;43.076;25.626;2023-02-28T00:25:23;100076.66;;;8.81;100.00
11605;BME280;5858;43.076;25.626;2023-02-28T00:27:52;100047.50;;;8.62;100.00
11605;BME280;5858;43.076;25.626;2023-02-28T00:30:21;100021.47;;;8.46;100.00
11605;BME280;5858;43.076;25.626;2023-02-28T00:32:48;100074.94;;;8.72;100.00
11605;BME280;5858;43.076;25.626;2023-02-28T00:35:16;100019.28;;;8.42;100.00
11605;BME280;5858;43.076;25.626;2023-02-28T00:37:43;100027.00;;;8.63;100.00
11605;BME280;5858;43.076;25.626;2023-02-28T00:40:11;100028.19;;;8.68;100.00
11605;BME280;5858;43.076;25.626;2023-02-28T00:42:38;100060.19;;;8.86;100.00
11605;BME280;5858;43.076;25.626;2023-02-28T00:45:08;99936.91;;;8.21;100.00
11605;BME280;5858;43.076;25.626;2023-02-28T00:47:37;100024.88;;;8.92;100.00
11605;BME280;5858;43.076;25.626;2023-02-28T00:50:05;100015.50;;;8.88;100.00
11605;BME280;5858;43.076;25.626;2023-02-28T00:52:32;100030.31;;;8.82;100.00
11605;BME280;5858;43.076;25.626;2023-02-28T00:55:00;99921.81;;;8.12;100.00
11605;BME280;5858;43.076;25.626;2023-02-28T00:57:27;100054.03;;;8.86;100.00
11605;BME280;5858;43.076;25.626;2023-02-28T00:59:53;100036.28;;;8.76;100.00
11605;BME280;5858;43.076;25.626;2023-02-28T01:02:22;100089.31;;;9.15;100.00
11605;BME280;5858;43.076;25.626;2023-02-28T01:04:49;99971.81;;;8.63;100.00
11605;BME280;5858;43.076;25.626;2023-02-28T01:07:16;100049.16;;;8.99;100.00
11605;BME280;5858;43.076;25.626;2023-02-28T01:09:43;100036.09;;;8.96;100.00
11605;BME280;5858;43.076;25.626;2023-02-28T01:12:10;99927.59;;;8.43;100.00
11605;BME280;5858;43.076;25.626;2023-02-28T01:14:37;100035.19;;;9.05;100.00
11605;BME280;5858;43.076;25.626;2023-02-28T01:17:05;100013.16;;;8.85;100.00
11605;BME280;5858;43.076;25.626;2023-02-28T01:19:34;100028.38;;;9.10;100.00
11605;BME280;5858;43.076;25.626;2023-02-28T01:22:02;100043.81;;;9.25;100.00
11605;BME280;5858;43.076;25.626;2023-02-28T01:24:29;99924.94;;;8.43;100.00
11605;BME280;5858;43.076;25.626;2023-02-28T01:26:56;100048.16;;;9.00;100.00
11605;BME280;5858;43.076;25.626;2023-02-28T01:29:24;99970.59;;;8.40;100.00
11605;BME280;5858;43.076;25.626;2023-02-28T01:31:51;99956.09;;;8.07;100.00
11605;BME280;5858;43.076;25.626;2023-02-28T01:34:19;99990.81;;;8.33;100.00
11605;BME280;5858;43.076;25.626;2023-02-28T01:36:48;99902.88;;;7.52;100.00
11605;BME280;5858;43.076;25.626;2023-02-28T01:39:16;99980.09;;;8.07;100.00
11605;BME280;5858;43.076;25.626;2023-02-28T01:41:43;99941.09;;;7.61;100.00
11605;BME280;5858;43.076;25.626;2023-02-28T01:47:14;99985.63;;;7.68;100.00
11605;BME280;5858;43.076;25.626;2023-02-28T01:49:41;99924.56;;;7.30;100.00
11605;BME280;5858;43.076;25.626;2023-02-28T01:52:11;99902.53;;;7.10;100.00
11605;BME280;5858;43.076;25.626;2023-02-28T01:54:40;100047.56;;;8.07;100.00
11605;BME280;5858;43.076;25.626;2023-02-28T01:57:10;99902.81;;;7.07;100.00
11605;BME280;5858;43.076;25.626;2023-02-28T01:59:45;100021.75;;;7.80;100.00
11605;BME280;5858;43.076;25.626;2023-02-28T02:02:16;100049.66;;;8.04;100.00
11605;BME280;5858;43.076;25.626;2023-02-28T02:04:49;100011.97;;;7.71;100.00
11605;BME280;5858;43.076;25.626;2023-02-28T02:07:19;99988.34;;;7.58;100.00
11605;BME280;5858;43.076;25.626;2023-02-28T02:09:46;100004.81;;;7.72;100.00
11605;BME280;5858;43.076;25.626;2023-02-28T02:12:21;99973.69;;;7.45;100.00
11605;BME280;5858;43.076;25.626;2023-02-28T02:15:01;99945.91;;;7.20;100.00
11605;BME280;5858;43.076;25.626;2023-02-28T02:17:34;100052.81;;;7.89;100.00
11605;BME280;5858;43.076;25.626;2023-02-28T02:20:32;100000.09;;;7.56;100.00
11605;BME280;5858;43.076;25.626;2023-02-28T02:23:24;100068.81;;;7.89;100.00
11605;BME280;5858;43.076;25.626;2023-02-28T02:25:55;100018.00;;;7.73;100.00
11605;BME280;5858;43.076;25.626;2023-02-28T02:28:41;99952.88;;;7.31;100.00
11605;BME280;5858;43.076;25.626;2023-02-28T02:31:40;100017.22;;;7.53;100.00
11605;BME280;5858;43.076;25.626;2023-02-28T02:34:34;100070.44;;;8.00;100.00
11605;BME280;5858;43.076;25.626;2023-02-28T02:37:35;99961.59;;;7.23;100.00
11605;BME280;5858;43.076;25.626;2023-02-28T02:40:13;100021.16;;;7.59;100.00
11605;BME280;5858;43.076;25.626;2023-02-28T02:42:47;100094.38;;;7.82;100.00
11605;BME280;5858;43.076;25.626;2023-02-28T02:45:19;100011.94;;;7.44;100.00
11605;BME280;5858;43.076;25.626;2023-02-28T02:47:50;99980.94;;;7.06;100.00
11605;BME280;5858;43.076;25.626;2023-02-28T02:50:23;100018.69;;;7.38;100.00
11605;BME280;5858;43.076;25.626;2023-02-28T02:52:55;99990.34;;;7.10;100.00
11605;BME280;5858;43.076;25.626;2023-02-28T02:55:24;100100.28;;;7.76;100.00
11605;BME280;5858;43.076;25.626;2023-02-28T02:57:54;99995.38;;;7.13;100.00
11605;BME280;5858;43.076;25.626;2023-02-28T03:00:27;100073.69;;;7.67;100.00
11605;BME280;5858;43.076;25.626;2023-02-28T03:02:56;100056.47;;;7.61;100.00
11605;BME280;5858;43.076;25.626;2023-02-28T03:05:26;100087.00;;;7.94;100.00
11605;BME280;5858;43.076;25.626;2023-02-28T03:07:55;100007.25;;;7.55;100.00
11605;BME280;5858;43.076;25.626;2023-02-28T03:10:28;100055.94;;;7.85;100.00
11605;BME280;5858;43.076;25.626;2023-02-28T03:13:06;99953.47;;;7.24;100.00
11605;BME280;5858;43.076;25.626;2023-02-28T03:15:50;100067.47;;;7.76;100.00
11605;BME280;5858;43.076;25.626;2023-02-28T03:18:26;100041.63;;;7.49;100.00
11605;BME280;5858;43.076;25.626;2023-02-28T03:21:03;100018.16;;;7.35;100.00
11605;BME280;5858;43.076;25.626;2023-02-28T03:23:40;100107.78;;;7.90;100.00
11605;BME280;5858;43.076;25.626;2023-02-28T03:26:16;100102.47;;;7.90;100.00
11605;BME280;5858;43.076;25.626;2023-02-28T03:28:54;100117.16;;;7.95;100.00
11605;BME280;5858;43.076;25.626;2023-02-28T03:31:27;100113.84;;;7.83;100.00
11605;BME280;5858;43.076;25.626;2023-02-28T03:34:01;100082.19;;;7.33;100.00
11605;BME280;5858;43.076;25.626;2023-02-28T03:36:35;99944.66;;;6.58;100.00
11605;BME280;5858;43.076;25.626;2023-02-28T03:39:12;100119.63;;;7.78;100.00
11605;BME280;5858;43.076;25.626;2023-02-28T03:41:43;100097.38;;;7.70;100.00
11605;BME280;5858;43.076;25.626;2023-02-28T03:44:17;100088.84;;;7.56;100.00
11605;BME280;5858;43.076;25.626;2023-02-28T03:46:52;100050.69;;;7.19;100.00
11605;BME280;5858;43.076;25.626;2023-02-28T03:49:27;100079.78;;;7.40;100.00
11605;BME280;5858;43.076;25.626;2023-02-28T03:51:59;100103.84;;;7.57;100.00
11605;BME280;5858;43.076;25.626;2023-02-28T03:54:30;100073.88;;;7.46;100.00
11605;BME280;5858;43.076;25.626;2023-02-28T03:57:04;100081.13;;;7.53;100.00
11605;BME280;5858;43.076;25.626;2023-02-28T03:59:36;100073.56;;;7.58;100.00
11605;BME280;5858;43.076;25.626;2023-02-28T04:02:04;100060.56;;;7.46;100.00
11605;BME280;5858;43.076;25.626;2023-02-28T04:04:31;100002.97;;;6.98;100.00
11605;BME280;5858;43.076;25.626;2023-02-28T04:07:07;100046.06;;;7.21;100.00
11605;BME280;5858;43.076;25.626;2023-02-28T04:09:35;100083.38;;;7.58;100.00
11605;BME280;5858;43.076;25.626;2023-02-28T04:12:02;100091.25;;;7.50;100.00
11605;BME280;5858;43.076;25.626;2023-02-28T04:14:29;100078.81;;;7.31;100.00
11605;BME280;5858;43.076;25.626;2023-02-28T04:16:56;100007.03;;;6.92;100.00
11605;BME280;5858;43.076;25.626;2023-02-28T04:19:23;99983.41;;;6.80;100.00
11605;BME280;5858;43.076;25.626;2023-02-28T04:21:51;100057.56;;;7.21;100.00
11605;BME280;5858;43.076;25.626;2023-02-28T04:24:21;100089.09;;;7.16;100.00
11605;BME280;5858;43.076;25.626;2023-02-28T04:26:50;100115.06;;;7.51;100.00
11605;BME280;5858;43.076;25.626;2023-02-28T04:29:20;100124.31;;;7.57;100.00
11605;BME280;5858;43.076;25.626;2023-02-28T04:31:47;100075.06;;;7.24;100.00
11605;BME280;5858;43.076;25.626;2023-02-28T04:34:15;100061.19;;;7.20;100.00
11605;BME280;5858;43.076;25.626;2023-02-28T04:36:44;100074.91;;;7.25;100.00
11605;BME280;5858;43.076;25.626;2023-02-28T04:39:11;100066.09;;;7.25;100.00
11605;BME280;5858;43.076;25.626;2023-02-28T04:41:40;100032.34;;;7.06;100.00
11605;BME280;5858;43.076;25.626;2023-02-28T04:44:07;100101.75;;;7.51;100.00
11605;BME280;5858;43.076;25.626;2023-02-28T04:46:34;100090.03;;;7.35;100.00
11605;BME280;5858;43.076;25.626;2023-02-28T04:49:01;100098.13;;;7.43;100.00
11605;BME280;5858;43.076;25.626;2023-02-28T04:51:28;100091.97;;;7.42;100.00
11605;BME280;5858;43.076;25.626;2023-02-28T04:54:00;100097.25;;;7.62;100.00
11605;BME280;5858;43.076;25.626;2023-02-28T04:56:27;100069.81;;;7.42;100.00
11605;BME280;5858;43.076;25.626;2023-02-28T04:58:55;100070.44;;;7.26;100.00
11605;BME280;5858;43.076;25.626;2023-02-28T05:01:24;100094.75;;;7.60;100.00
11605;BME280;5858;43.076;25.626;2023-02-28T05:03:53;100120.75;;;7.76;100.00
11605;BME280;5858;43.076;25.626;2023-02-28T05:06:21;100071.63;;;7.51;100.00
11605;BME280;5858;43.076;25.626;2023-02-28T05:08:49;100101.28;;;7.75;100.00
11605;BME280;5858;43.076;25.626;2023-02-28T05:11:18;100126.94;;;8.04;100.00
11605;BME280;5858;43.076;25.626;2023-02-28T05:13:46;100139.72;;;8.00;100.00
11605;BME280;5858;43.076;25.626;2023-02-28T05:16:14;100134.00;;;7.95;100.00
11605;BME280;5858;43.076;25.626;2023-02-28T05:18:41;100114.72;;;7.74;100.00
11605;BME280;5858;43.076;25.626;2023-02-28T05:21:23;100145.88;;;8.01;100.00
11605;BME280;5858;43.076;25.626;2023-02-28T05:23:51;100127.22;;;8.01;100.00
11605;BME280;5858;43.076;25.626;2023-02-28T05:26:18;100100.72;;;7.72;100.00
11605;BME280;5858;43.076;25.626;2023-02-28T05:28:45;100080.69;;;7.68;100.00
11605;BME280;5858;43.076;25.626;2023-02-28T05:31:13;100118.34;;;7.82;100.00
11605;BME280;5858;43.076;25.626;2023-02-28T05:33:40;100073.44;;;7.50;100.00
11605;BME280;5858;43.076;25.626;2023-02-28T05:36:08;100102.00;;;7.95;100.00
11605;BME280;5858;43.076;25.626;2023-02-28T05:38:35;100141.88;;;8.24;100.00
11605;BME280;5858;43.076;25.626;2023-02-28T05:41:05;100063.09;;;7.84;100.00
11605;BME280;5858;43.076;25.626;2023-02-28T05:43:32;100107.41;;;8.13;100.00
11605;BME280;5858;43.076;25.626;2023-02-28T05:46:02;100114.28;;;8.15;100.00
11605;BME280;5858;43.076;25.626;2023-02-28T05:48:30;100156.03;;;8.25;100.00
11605;BME280;5858;43.076;25.626;2023-02-28T05:50:57;100166.41;;;8.37;100.00
11605;BME280;5858;43.076;25.626;2023-02-28T05:53:24;100127.44;;;7.89;100.00
11605;BME280;5858;43.076;25.626;2023-02-28T05:55:51;100175.00;;;8.21;100.00
11605;BME280;5858;43.076;25.626;2023-02-28T05:58:18;100133.41;;;8.01;100.00
11605;BME280;5858;43.076;25.626;2023-02-28T06:00:46;100153.59;;;8.04;100.00
11605;BME280;5858;43.076;25.626;2023-02-28T06:03:13;100109.81;;;7.79;100.00
11605;BME280;5858;43.076;25.626;2023-02-28T06:05:42;100078.19;;;7.56;100.00
11605;BME280;5858;43.076;25.626;2023-02-28T06:08:09;100113.16;;;7.81;100.00
11605;BME280;5858;43.076;25.626;2023-02-28T06:10:36;100092.84;;;7.80;100.00
11605;BME280;5858;43.076;25.626;2023-02-28T06:13:03;100158.03;;;8.23;100.00
11605;BME280;5858;43.076;25.626;2023-02-28T06:15:31;100079.41;;;7.72;100.00
11605;BME280;5858;43.076;25.626;2023-02-28T06:17:58;100075.94;;;7.62;100.00
11605;BME280;5858;43.076;25.626;2023-02-28T06:20:27;100092.91;;;7.61;100.00
11605;BME280;5858;43.076;25.626;2023-02-28T06:22:56;100175.22;;;8.01;100.00
11605;BME280;5858;43.076;25.626;2023-02-28T06:25:25;100131.19;;;7.60;100.00
11605;BME280;5858;43.076;25.626;2023-02-28T06:27:52;100186.56;;;8.03;100.00
11605;BME280;5858;43.076;25.626;2023-02-28T06:30:19;100173.72;;;7.88;100.00
11605;BME280;5858;43.076;25.626;2023-02-28T06:32:50;100099.91;;;7.52;100.00
11605;BME280;5858;43.076;25.626;2023-02-28T06:35:17;100135.03;;;7.84;100.00
11605;BME280;5858;43.076;25.626;2023-02-28T06:37:44;100177.09;;;8.28;100.00
11605;BME280;5858;43.076;25.626;2023-02-28T06:40:14;100057.44;;;7.60;100.00
11605;BME280;5858;43.076;25.626;2023-02-28T06:42:41;100158.47;;;8.18;100.00
11605;BME280;5858;43.076;25.626;2023-02-28T06:45:09;100185.09;;;8.28;100.00
11605;BME280;5858;43.076;25.626;2023-02-28T06:47:37;100174.25;;;8.39;100.00
11605;BME280;5858;43.076;25.626;2023-02-28T06:50:08;100156.44;;;8.30;100.00
11605;BME280;5858;43.076;25.626;2023-02-28T06:52:43;100178.38;;;8.51;100.00
11605;BME280;5858;43.076;25.626;2023-02-28T06:55:13;100069.78;;;7.88;100.00
11605;BME280;5858;43.076;25.626;2023-02-28T06:57:41;100064.16;;;7.92;100.00
11605;BME280;5858;43.076;25.626;2023-02-28T07:00:13;99989.34;;;7.48;100.00
11605;BME280;5858;43.076;25.626;2023-02-28T07:02:43;100179.66;;;8.74;99.74
11605;BME280;5858;43.076;25.626;2023-02-28T07:05:10;100065.78;;;8.02;99.97
11605;BME280;5858;43.076;25.626;2023-02-28T07:07:43;99984.78;;;7.40;99.85
11605;BME280;5858;43.076;25.626;2023-02-28T07:10:13;100155.22;;;8.24;100.00
11605;BME280;5858;43.076;25.626;2023-02-28T07:12:42;100011.19;;;7.61;100.00
11605;BME280;5858;43.076;25.626;2023-02-28T07:15:10;100125.00;;;8.33;100.00
11605;BME280;5858;43.076;25.626;2023-02-28T07:17:39;100161.50;;;8.60;100.00
11605;BME280;5858;43.076;25.626;2023-02-28T07:20:07;100095.69;;;8.06;99.44
11605;BME280;5858;43.076;25.626;2023-02-28T07:22:37;100017.22;;;7.53;100.00
11605;BME280;5858;43.076;25.626;2023-02-28T07:25:06;100165.41;;;8.66;99.72
11605;BME280;5858;43.076;25.626;2023-02-28T07:27:34;100175.09;;;8.67;100.00
11605;BME280;5858;43.076;25.626;2023-02-28T07:30:02;100096.31;;;8.17;100.00
11605;BME280;5858;43.076;25.626;2023-02-28T07:32:29;100144.91;;;8.66;99.33
11605;BME280;5858;43.076;25.626;2023-02-28T07:34:56;100130.38;;;8.51;99.13
11605;BME280;5858;43.076;25.626;2023-02-28T07:37:24;100145.66;;;8.59;99.44
11605;BME280;5858;43.076;25.626;2023-02-28T07:39:51;100143.38;;;8.64;99.31
11605;BME280;5858;43.076;25.626;2023-02-28T07:42:18;99986.78;;;7.56;99.15
11605;BME280;5858;43.076;25.626;2023-02-28T07:44:46;100114.53;;;8.49;99.09
11605;BME280;5858;43.076;25.626;2023-02-28T07:47:13;100169.84;;;8.47;99.31
11605;BME280;5858;43.076;25.626;2023-02-28T07:49:40;100158.47;;;8.55;99.65
11605;BME280;5858;43.076;25.626;2023-02-28T07:52:08;100169.28;;;8.54;99.72
11605;BME280;5858;43.076;25.626;2023-02-28T07:54:36;100055.94;;;7.85;100.00
11605;BME280;5858;43.076;25.626;2023-02-28T07:57:04;100091.53;;;8.21;98.84
11605;BME280;5858;43.076;25.626;2023-02-28T07:59:31;100200.66;;;8.87;98.81
11605;BME280;5858;43.076;25.626;2023-02-28T08:01:59;100144.28;;;8.55;98.11
11605;BME280;5858;43.076;25.626;2023-02-28T08:04:26;100201.56;;;8.78;98.41
11605;BME280;5858;43.076;25.626;2023-02-28T08:06:57;100136.84;;;8.48;98.96
11605;BME280;5858;43.076;25.626;2023-02-28T08:09:27;100024.81;;;7.58;97.86
11605;BME280;5858;43.076;25.626;2023-02-28T08:11:55;100027.72;;;7.55;99.40
11605;BME280;5858;43.076;25.626;2023-02-28T08:14:22;100108.16;;;8.05;99.84
11605;BME280;5858;43.076;25.626;2023-02-28T08:16:49;100212.53;;;8.47;100.00
11605;BME280;5858;43.076;25.626;2023-02-28T08:19:18;100124.03;;;7.97;100.00
11605;BME280;5858;43.076;25.626;2023-02-28T08:21:45;100143.59;;;8.15;100.00
11605;BME280;5858;43.076;25.626;2023-02-28T08:24:12;100137.28;;;8.16;99.65
11605;BME280;5858;43.076;25.626;2023-02-28T08:26:39;100182.50;;;8.45;98.86
11605;BME280;5858;43.076;25.626;2023-02-28T08:29:06;100067.75;;;7.73;99.22
11605;BME280;5858;43.076;25.626;2023-02-28T08:31:33;100194.31;;;8.70;99.58
11605;BME280;5858;43.076;25.626;2023-02-28T08:34:05;100096.63;;;8.14;98.67
11605;BME280;5858;43.076;25.626;2023-02-28T08:36:34;100136.47;;;8.43;99.01
11605;BME280;5858;43.076;25.626;2023-02-28T08:39:04;100161.28;;;8.71;98.88
11605;BME280;5858;43.076;25.626;2023-02-28T08:41:31;100100.50;;;8.47;97.70
11605;BME280;5858;43.076;25.626;2023-02-28T08:44:01;100137.81;;;8.75;97.77
11605;BME280;5858;43.076;25.626;2023-02-28T08:46:33;100132.28;;;9.04;96.67
11605;BME280;5858;43.076;25.626;2023-02-28T08:49:01;100078.88;;;8.68;95.33
11605;BME280;5858;43.076;25.626;2023-02-28T08:51:38;100145.31;;;9.07;94.73
11605;BME280;5858;43.076;25.626;2023-02-28T08:54:08;100186.41;;;8.96;95.64
11605;BME280;5858;43.076;25.626;2023-02-28T08:56:38;100180.63;;;9.01;95.87
11605;BME280;5858;43.076;25.626;2023-02-28T08:59:06;100147.97;;;8.71;95.40
11605;BME280;5858;43.076;25.626;2023-02-28T09:01:36;100219.75;;;9.45;95.44
11605;BME280;5858;43.076;25.626;2023-02-28T09:04:03;100152.69;;;9.13;95.30
11605;BME280;5858;43.076;25.626;2023-02-28T09:06:32;100173.88;;;9.32;94.76
11605;BME280;5858;43.076;25.626;2023-02-28T09:09:03;100131.78;;;8.91;94.20
11605;BME280;5858;43.076;25.626;2023-02-28T09:11:38;100077.75;;;8.53;94.74
11605;BME280;5858;43.076;25.626;2023-02-28T09:14:07;100087.44;;;8.54;95.24
11605;BME280;5858;43.076;25.626;2023-02-28T09:16:42;100144.53;;;9.14;94.28
11605;BME280;5858;43.076;25.626;2023-02-28T09:19:10;100216.63;;;9.50;93.70
11605;BME280;5858;43.076;25.626;2023-02-28T09:21:38;100145.44;;;9.23;93.61
11605;BME280;5858;43.076;25.626;2023-02-28T09:24:08;100044.19;;;8.50;93.99
11605;BME280;5858;43.076;25.626;2023-02-28T09:26:37;100130.19;;;8.98;93.79
11605;BME280;5858;43.076;25.626;2023-02-28T09:29:04;100227.97;;;9.70;93.19
11605;BME280;5858;43.076;25.626;2023-02-28T09:31:32;100102.06;;;8.68;93.48
11605;BME280;5858;43.076;25.626;2023-02-28T09:34:01;100214.19;;;9.39;94.04
11605;BME280;5858;43.076;25.626;2023-02-28T09:36:28;100159.56;;;8.98;94.31
11605;BME280;5858;43.076;25.626;2023-02-28T09:38:56;100241.72;;;9.75;93.97
11605;BME280;5858;43.076;25.626;2023-02-28T09:41:25;100197.47;;;9.55;93.43
11605;BME280;5858;43.076;25.626;2023-02-28T09:43:56;100150.31;;;9.28;92.65
11605;BME280;5858;43.076;25.626;2023-02-28T09:46:29;100211.41;;;9.66;93.13
11605;BME280;5858;43.076;25.626;2023-02-28T09:49:04;100250.84;;;9.90;93.02
11605;BME280;5858;43.076;25.626;2023-02-28T09:51:44;100091.44;;;8.94;92.70
11605;BME280;5858;43.076;25.626;2023-02-28T09:54:15;100127.59;;;9.24;93.22
11605;BME280;5858;43.076;25.626;2023-02-28T09:56:55;100051.59;;;8.57;93.10
11605;BME280;5858;43.076;25.626;2023-02-28T09:59:32;100123.47;;;8.76;94.80
11605;BME280;5858;43.076;25.626;2023-02-28T10:02:14;100234.56;;;9.58;95.30
11605;BME280;5858;43.076;25.626;2023-02-28T10:04:47;100202.41;;;9.67;94.28
11605;BME280;5858;43.076;25.626;2023-02-28T10:07:26;100188.78;;;9.35;93.48
11605;BME280;5858;43.076;25.626;2023-02-28T10:09:57;100222.16;;;9.74;93.66
11605;BME280;5858;43.076;25.626;2023-02-28T10:12:29;100227.13;;;9.69;94.12
11605;BME280;5858;43.076;25.626;2023-02-28T10:15:16;100217.81;;;9.73;93.89
11605;BME280;5858;43.076;25.626;2023-02-28T10:18:16;100233.09;;;10.07;92.90
11605;BME280;5858;43.076;25.626;2023-02-28T10:20:56;100084.97;;;8.96;93.00
11605;BME280;5858;43.076;25.626;2023-02-28T10:24:26;100055.25;;;8.73;93.67
11605;BME280;5858;43.076;25.626;2023-02-28T10:26:54;100116.59;;;9.27;93.54
11605;BME280;5858;43.076;25.626;2023-02-28T10:29:31;100018.00;;;8.64;93.12
11605;BME280;5858;43.076;25.626;2023-02-28T10:32:09;100072.16;;;8.82;92.63
11605;BME280;5858;43.076;25.626;2023-02-28T10:34:57;99993.28;;;8.44;93.69
11605;BME280;5858;43.076;25.626;2023-02-28T10:37:28;100011.94;;;8.79;92.54
11605;BME280;5858;43.076;25.626;2023-02-28T10:40:26;100127.44;;;9.25;92.28
11605;BME280;5858;43.076;25.626;2023-02-28T10:42:58;100200.47;;;9.77;93.41
11605;BME280;5858;43.076;25.626;2023-02-28T10:45:27;100021.34;;;8.66;93.64
11605;BME280;5858;43.076;25.626;2023-02-28T10:48:29;99998.84;;;8.68;93.74
11605;BME280;5858;43.076;25.626;2023-02-28T10:51:00;100062.25;;;8.92;92.89
11605;BME280;5858;43.076;25.626;2023-02-28T10:53:34;100220.09;;;10.12;93.12
11605;BME280;5858;43.076;25.626;2023-02-28T10:56:16;100125.91;;;9.66;92.78
11605;BME280;5858;43.076;25.626;2023-02-28T10:58:56;100070.31;;;9.44;92.86
11605;BME280;5858;43.076;25.626;2023-02-28T11:01:35;100075.88;;;9.51;91.68
11605;BME280;5858;43.076;25.626;2023-02-28T11:04:25;100204.50;;;10.33;92.37
11605;BME280;5858;43.076;25.626;2023-02-28T11:07:03;100076.28;;;9.64;92.17
11605;BME280;5858;43.076;25.626;2023-02-28T11:09:33;99983.34;;;9.15;92.10
11605;BME280;5858;43.076;25.626;2023-02-28T11:12:02;100186.69;;;10.42;91.67
11605;BME280;5858;43.076;25.626;2023-02-28T11:14:36;100081.56;;;9.82;91.95
11605;BME280;5858;43.076;25.626;2023-02-28T11:17:14;100159.06;;;10.07;93.09
11605;BME280;5858;43.076;25.626;2023-02-28T11:19:45;100063.41;;;9.33;93.37
11605;BME280;5858;43.076;25.626;2023-02-28T11:22:18;100162.28;;;10.19;93.17
11605;BME280;5858;43.076;25.626;2023-02-28T11:24:50;100138.19;;;10.11;93.40
11605;BME280;5858;43.076;25.626;2023-02-28T11:30:30;99987.69;;;9.17;91.87
11605;BME280;5858;43.076;25.626;2023-02-28T11:33:27;100153.16;;;10.30;91.87
11605;BME280;5858;43.076;25.626;2023-02-28T11:36:01;100146.66;;;9.98;92.68
11605;BME280;5858;43.076;25.626;2023-02-28T11:42:35;99981.88;;;9.21;92.57
11605;BME280;5858;43.076;25.626;2023-02-28T11:45:22;99955.13;;;8.61;94.03
11605;BME280;5858;43.076;25.626;2023-02-28T11:48:04;99996.94;;;8.78;94.82
11605;BME280;5858;43.076;25.626;2023-02-28T11:50:54;100164.94;;;9.85;94.62
11605;BME280;5858;43.076;25.626;2023-02-28T11:53:37;100112.59;;;9.49;95.34
11605;BME280;5858;43.076;25.626;2023-02-28T11:56:18;100142.03;;;9.57;95.67
11605;BME280;5858;43.076;25.626;2023-02-28T11:58:55;100012.66;;;8.64;95.68
11605;BME280;5858;43.076;25.626;2023-02-28T12:01:42;100153.78;;;9.64;96.29
11605;BME280;5858;43.076;25.626;2023-02-28T12:04:25;100062.44;;;9.17;96.37
11605;BME280;5858;43.076;25.626;2023-02-28T12:07:12;100060.53;;;9.27;96.65
11605;BME280;5858;43.076;25.626;2023-02-28T12:09:54;100096.19;;;9.69;95.65
11605;BME280;5858;43.076;25.626;2023-02-28T12:12:38;99975.13;;;8.83;94.88
11605;BME280;5858;43.076;25.626;2023-02-28T12:15:31;100087.97;;;9.63;95.69
11605;BME280;5858;43.076;25.626;2023-02-28T12:18:14;99990.31;;;9.08;94.87
11605;BME280;5858;43.076;25.626;2023-02-28T12:20:49;100073.34;;;9.75;94.34
11605;BME280;5858;43.076;25.626;2023-02-28T12:26:22;100002.50;;;9.11;95.30
11605;BME280;5858;43.076;25.626;2023-02-28T12:29:00;99959.84;;;8.93;94.70
11605;BME280;5858;43.076;25.626;2023-02-28T12:31:31;100133.13;;;9.74;95.48
11605;BME280;5858;43.076;25.626;2023-02-28T12:34:03;100076.34;;;9.46;96.14
11605;BME280;5858;43.076;25.626;2023-02-28T12:36:35;100065.75;;;9.36;95.46
11605;BME280;5858;43.076;25.626;2023-02-28T12:39:08;100114.69;;;9.63;96.05
11605;BME280;5858;43.076;25.626;2023-02-28T12:41:41;100154.66;;;9.98;96.09
11605;BME280;5858;43.076;25.626;2023-02-28T12:44:43;100166.69;;;9.94;96.18
11605;BME280;5858;43.076;25.626;2023-02-28T12:47:15;100111.09;;;9.80;96.17
11605;BME280;5858;43.076;25.626;2023-02-28T12:49:48;100097.72;;;9.72;95.97
11605;BME280;5858;43.076;25.626;2023-02-28T12:52:25;100113.97;;;9.87;95.34
11605;BME280;5858;43.076;25.626;2023-02-28T12:54:58;100097.88;;;9.70;96.45
11605;BME280;5858;43.076;25.626;2023-02-28T12:57:39;100093.31;;;9.63;97.32
11605;BME280;5858;43.076;25.626;2023-02-28T13:04:16;100000.06;;;8.74;97.96
11605;BME280;5858;43.076;25.626;2023-02-28T13:10:44;100142.41;;;9.18;100.00
11605;BME280;5858;43.076;25.626;2023-02-28T13:13:19;100026.44;;;8.41;100.00
11605;BME280;5858;43.076;25.626;2023-02-28T13:16:02;99975.63;;;7.98;100.00
11605;BME280;5858;43.076;25.626;2023-02-28T13:18:36;100023.03;;;8.21;100.00
11605;BME280;5858;43.076;25.626;2023-02-28T13:21:06;100171.06;;;8.98;100.00
11605;BME280;5858;43.076;25.626;2023-02-28T13:23:58;100048.41;;;8.26;100.00
11605;BME280;5858;43.076;25.626;2023-02-28T13:29:35;100086.41;;;8.37;100.00
11605;BME280;5858;43.076;25.626;2023-02-28T13:32:35;100085.19;;;8.49;100.00
11605;BME280;5858;43.076;25.626;2023-02-28T13:35:42;99942.41;;;7.47;100.00
11605;BME280;5858;43.076;25.626;2023-02-28T13:38:32;100069.91;;;8.24;100.00
11605;BME280;5858;43.076;25.626;2023-02-28T13:44:08;100132.03;;;8.62;100.00
11605;BME280;5858;43.076;25.626;2023-02-28T13:47:20;99943.41;;;7.18;100.00
11605;BME280;5858;43.076;25.626;2023-02-28T13:49:49;100123.75;;;8.28;100.00